createdAt,value
2019-02-08T00:01:27.208Z,11.40
2019-02-08T00:03:55.138Z,11.50
2019-02-08T00:06:23.078Z,11.40
2019-02-08T00:08:51.111Z,11.40
2019-02-08T00:11:19.108Z,11.40
2019-02-08T00:13:47.330Z,11.50
2019-02-08T00:16:15.302Z,11.50
2019-02-08T00:18:43.615Z,11.50
2019-02-08T00:21:11.602Z,11.50
2019-02-08T00:23:39.560Z,11.50
2019-02-08T00:26:07.482Z,11.50
2019-02-08T00:28:35.423Z,11.60
2019-02-08T00:31:03.353Z,11.50
2019-02-08T00:33:31.277Z,11.50
2019-02-08T00:35:59.882Z,11.50
2019-02-08T00:38:27.948Z,11.50
2019-02-08T00:40:55.881Z,11.50
2019-02-08T00:43:23.769Z,11.50
2019-02-08T00:45:51.882Z,11.50
2019-02-08T00:48:19.881Z,11.50
2019-02-08T00:50:47.799Z,11.60
2019-02-08T00:53:15.722Z,11.50
2019-02-08T00:55:43.652Z,11.60
2019-02-08T00:58:11.583Z,11.60
2019-02-08T01:00:39.547Z,11.50
2019-02-08T01:03:07.455Z,11.50
2019-02-08T01:05:35.547Z,11.50
2019-02-08T01:08:03.592Z,11.40
2019-02-08T01:10:31.507Z,11.40
2019-02-08T01:12:59.821Z,11.40
2019-02-08T01:15:27.834Z,11.40
2019-02-08T01:17:55.748Z,11.40
2019-02-08T01:20:23.620Z,11.40
2019-02-08T01:22:51.749Z,11.40
2019-02-08T01:25:19.689Z,11.40
2019-02-08T01:27:47.633Z,11.40
2019-02-08T01:30:15.816Z,11.40
2019-02-08T01:32:43.736Z,11.40
2019-02-08T01:35:11.663Z,11.40
2019-02-08T01:37:39.622Z,11.40
2019-02-08T01:40:07.506Z,11.40
2019-02-08T01:42:35.475Z,11.40
2019-02-08T01:45:03.728Z,11.40
2019-02-08T01:47:31.889Z,11.40
2019-02-08T01:50:01.277Z,11.40
2019-02-08T01:52:29.342Z,11.40
2019-02-08T01:54:57.270Z,11.40
2019-02-08T01:57:25.208Z,11.40
2019-02-08T01:59:53.131Z,11.40
2019-02-08T02:02:21.095Z,11.40
2019-02-08T02:04:49.050Z,11.40
2019-02-08T02:07:16.990Z,11.40
2019-02-08T02:09:44.975Z,11.40
2019-02-08T02:12:12.889Z,11.40
2019-02-08T02:14:44.781Z,11.40
2019-02-08T02:17:12.847Z,11.40
2019-02-08T02:19:40.861Z,11.30
2019-02-08T02:22:08.778Z,11.40
2019-02-08T02:24:37.723Z,11.40
2019-02-08T02:27:05.645Z,11.30
2019-02-08T02:29:33.568Z,11.30
2019-02-08T02:32:01.492Z,11.30
2019-02-08T02:34:29.455Z,11.30
2019-02-08T02:36:57.366Z,11.40
2019-02-08T02:39:25.414Z,11.40
2019-02-08T02:41:53.524Z,11.40
2019-02-08T02:44:21.436Z,11.40
2019-02-08T02:46:49.356Z,11.40
2019-02-08T02:49:17.295Z,11.30
2019-02-08T02:51:45.220Z,11.30
2019-02-08T02:54:13.095Z,11.30
2019-02-08T02:56:41.249Z,11.30
2019-02-08T02:59:09.271Z,11.20
2019-02-08T03:01:37.198Z,11.20
2019-02-08T03:04:05.125Z,11.20
2019-02-08T03:06:33.391Z,11.10
2019-02-08T03:09:02.543Z,11.10
2019-02-08T03:11:30.467Z,11.10
2019-02-08T03:13:58.424Z,11.00
2019-02-08T03:16:26.351Z,11.00
2019-02-08T03:18:54.295Z,11.00
2019-02-08T03:21:22.211Z,10.90
2019-02-08T03:23:50.141Z,10.90
2019-02-08T03:26:18.105Z,10.90
2019-02-08T03:28:46.131Z,10.90
2019-02-08T03:31:14.017Z,11.00
2019-02-08T03:33:41.929Z,11.00
2019-02-08T03:36:09.969Z,10.90
2019-02-08T03:38:37.876Z,10.80
2019-02-08T03:41:05.813Z,10.70
2019-02-08T03:43:33.718Z,10.70
2019-02-08T03:46:01.694Z,10.60
2019-02-08T03:48:29.694Z,10.50
2019-02-08T03:50:57.678Z,10.50
2019-02-08T03:53:25.602Z,10.40
2019-02-08T03:55:58.475Z,10.40
2019-02-08T03:58:23.271Z,10.30
2019-02-08T04:01:00.697Z,10.20
2019-02-08T04:03:28.651Z,10.20
2019-02-08T04:05:56.579Z,10.20
2019-02-08T04:08:24.600Z,10.30
2019-02-08T04:10:52.535Z,10.20
2019-02-08T04:13:20.473Z,10.10
2019-02-08T04:15:48.432Z,10.10
2019-02-08T04:18:16.586Z,10.10
2019-02-08T04:20:44.498Z,10.10
2019-02-08T04:23:12.699Z,10.10
2019-02-08T04:25:40.612Z,10.10
2019-02-08T04:28:08.784Z,10.10
2019-02-08T04:30:36.759Z,10.10
2019-02-08T04:33:04.849Z,10.10
2019-02-08T04:35:32.766Z,10.10
2019-02-08T04:38:00.709Z,10.00
2019-02-08T04:40:28.634Z,10.00
2019-02-08T04:42:56.617Z,10.00
2019-02-08T04:45:24.550Z,10.00
2019-02-08T04:47:52.473Z,9.90
2019-02-08T04:50:20.691Z,9.90
2019-02-08T04:52:48.596Z,9.90
2019-02-08T04:55:16.993Z,9.90
2019-02-08T04:57:44.914Z,9.90
2019-02-08T05:00:13.031Z,9.90
2019-02-08T05:02:40.947Z,9.90
2019-02-08T05:05:08.846Z,9.90
2019-02-08T05:07:36.765Z,10.00
2019-02-08T05:10:04.808Z,10.00
2019-02-08T05:12:32.746Z,10.10
2019-02-08T05:15:00.705Z,10.20
2019-02-08T05:17:28.666Z,10.20
2019-02-08T05:19:56.535Z,10.10
2019-02-08T05:22:24.460Z,10.10
2019-02-08T05:24:52.480Z,10.10
2019-02-08T05:27:20.519Z,10.10
2019-02-08T05:29:48.502Z,10.10
2019-02-08T05:32:16.381Z,10.20
2019-02-08T05:34:44.271Z,10.20
2019-02-08T05:37:12.248Z,10.20
2019-02-08T05:39:40.133Z,10.10
2019-02-08T05:42:08.056Z,10.10
2019-02-08T05:44:35.998Z,10.10
2019-02-08T05:47:03.990Z,10.10
2019-02-08T05:49:31.996Z,10.10
2019-02-08T05:51:59.921Z,10.20
2019-02-08T05:54:27.852Z,10.20
2019-02-08T05:56:55.798Z,10.20
2019-02-08T05:59:24.343Z,10.20
2019-02-08T06:01:52.267Z,10.20
2019-02-08T06:04:20.237Z,10.20
2019-02-08T06:06:48.144Z,10.30
2019-02-08T06:09:17.061Z,10.40
2019-02-08T06:11:45.275Z,10.50
2019-02-08T06:14:13.331Z,10.50
2019-02-08T06:16:41.254Z,10.50
2019-02-08T06:19:09.768Z,10.40
2019-02-08T06:21:37.734Z,10.40
2019-02-08T06:24:05.738Z,10.40
2019-02-08T06:26:33.953Z,10.40
2019-02-08T06:29:01.935Z,10.40
2019-02-08T06:31:30.027Z,10.40
2019-02-08T06:33:58.214Z,10.40
2019-02-08T06:36:26.144Z,10.40
2019-02-08T06:38:54.103Z,10.40
2019-02-08T06:41:22.013Z,10.30
2019-02-08T06:43:50.046Z,10.40
2019-02-08T06:46:18.037Z,10.40
2019-02-08T06:48:45.974Z,10.50
2019-02-08T06:51:13.887Z,10.50
2019-02-08T06:53:41.828Z,10.60
2019-02-08T06:56:28.740Z,10.60
2019-02-08T06:59:07.263Z,10.60
2019-02-08T07:01:51.516Z,10.70
2019-02-08T07:04:40.691Z,10.70
2019-02-08T07:07:27.432Z,10.70
2019-02-08T07:10:05.384Z,10.70
2019-02-08T07:12:55.975Z,10.70
2019-02-08T07:15:45.499Z,10.70
2019-02-08T07:18:31.135Z,10.70
2019-02-08T07:21:29.986Z,10.70
2019-02-08T07:24:16.718Z,10.80
2019-02-08T07:27:06.254Z,10.90
2019-02-08T07:30:02.256Z,10.90
2019-02-08T07:32:48.971Z,11.00
2019-02-08T07:35:25.630Z,11.10
2019-02-08T07:38:11.245Z,11.30
2019-02-08T07:41:00.749Z,11.60
2019-02-08T07:43:39.871Z,11.90
2019-02-08T07:46:16.063Z,12.20
2019-02-08T07:49:03.917Z,12.60
2019-02-08T07:51:49.293Z,13.10
2019-02-08T07:54:38.823Z,13.60
2019-02-08T07:57:28.345Z,14.20
2019-02-08T08:00:14.459Z,14.80
2019-02-08T08:02:59.831Z,15.30
2019-02-08T08:05:55.550Z,15.80
2019-02-08T08:08:48.330Z,16.30
2019-02-08T08:11:53.525Z,16.80
2019-02-08T08:14:49.332Z,17.40
2019-02-08T08:17:41.952Z,17.90
2019-02-08T08:20:47.068Z,18.40
2019-02-08T08:23:40.153Z,18.90
2019-02-08T08:26:25.597Z,19.10
2019-02-08T08:29:18.305Z,19.70
2019-02-08T08:31:52.880Z,20.00
2019-02-08T08:34:20.827Z,20.30
2019-02-08T08:36:48.917Z,20.50
2019-02-08T08:39:17.010Z,20.70
2019-02-08T08:41:46.347Z,20.90
2019-02-08T08:44:14.205Z,21.20
2019-02-08T08:46:42.343Z,21.30
2019-02-08T08:49:10.314Z,21.60
2019-02-08T08:51:38.248Z,21.80
2019-02-08T08:54:06.243Z,22.20
2019-02-08T08:56:34.206Z,22.70
2019-02-08T08:59:02.152Z,23.10
2019-02-08T09:01:30.095Z,23.40
2019-02-08T09:03:58.119Z,23.80
2019-02-08T09:06:26.038Z,23.70
2019-02-08T09:08:53.976Z,24.00
2019-02-08T09:11:22.144Z,23.80
2019-02-08T09:13:51.368Z,23.60
2019-02-08T09:16:19.343Z,23.80
2019-02-08T09:18:47.331Z,24.10
2019-02-08T09:21:15.204Z,24.30
2019-02-08T09:23:43.148Z,24.30
2019-02-08T09:26:11.092Z,24.70
2019-02-08T09:28:38.972Z,25.00
2019-02-08T09:31:06.917Z,25.20
2019-02-08T09:33:34.796Z,25.10
2019-02-08T09:36:02.704Z,24.90
2019-02-08T09:38:30.627Z,24.50
2019-02-08T09:40:58.606Z,24.50
2019-02-08T09:43:26.700Z,24.70
2019-02-08T09:45:54.912Z,25.00
2019-02-08T09:48:22.865Z,25.20
2019-02-08T09:50:50.759Z,25.10
2019-02-08T09:53:18.666Z,25.20
2019-02-08T09:55:46.600Z,25.20
2019-02-08T09:58:14.476Z,25.30
2019-02-08T10:00:43.918Z,25.90
2019-02-08T10:03:11.817Z,26.30
2019-02-08T10:05:39.761Z,26.50
2019-02-08T10:08:08.028Z,26.60
2019-02-08T10:10:36.461Z,26.50
2019-02-08T10:13:04.405Z,26.70
2019-02-08T10:15:32.365Z,27.10
2019-02-08T10:18:00.355Z,26.70
2019-02-08T10:20:28.368Z,26.90
2019-02-08T10:22:56.316Z,27.00
2019-02-08T10:25:24.285Z,27.20
2019-02-08T10:27:52.480Z,27.30
2019-02-08T10:30:22.010Z,27.30
2019-02-08T10:32:50.103Z,26.40
2019-02-08T10:35:18.144Z,26.00
2019-02-08T10:37:46.035Z,26.20
2019-02-08T10:40:14.000Z,26.00
2019-02-08T10:42:42.125Z,25.40
2019-02-08T10:45:10.270Z,25.50
2019-02-08T10:47:38.454Z,25.90
2019-02-08T10:50:06.374Z,26.00
2019-02-08T10:52:34.279Z,25.80
2019-02-08T10:55:02.193Z,25.70
2019-02-08T10:57:30.169Z,25.20
2019-02-08T10:59:58.346Z,24.90
2019-02-08T11:02:27.349Z,24.80
2019-02-08T11:04:55.368Z,24.30
2019-02-08T11:07:27.871Z,23.80
2019-02-08T11:09:53.933Z,23.30
2019-02-08T11:12:21.883Z,22.50
2019-02-08T11:14:50.011Z,21.90
2019-02-08T11:17:17.952Z,21.40
2019-02-08T11:19:45.879Z,20.90
2019-02-08T11:22:14.008Z,20.40
2019-02-08T11:24:41.892Z,19.90
2019-02-08T11:27:09.860Z,19.30
2019-02-08T11:29:40.279Z,18.90
2019-02-08T11:32:08.403Z,18.50
2019-02-08T11:34:36.343Z,18.40
2019-02-08T11:37:04.592Z,18.40
2019-02-08T11:39:32.518Z,18.20
2019-02-08T11:42:00.673Z,18.10
2019-02-08T11:44:28.601Z,18.10
2019-02-08T11:46:56.562Z,18.20
2019-02-08T11:49:24.601Z,18.10
2019-02-08T11:51:52.639Z,18.20
2019-02-08T11:54:20.676Z,18.20
2019-02-08T11:56:48.583Z,18.30
2019-02-08T11:59:16.609Z,18.20
2019-02-08T12:01:47.827Z,17.80
2019-02-08T12:04:15.898Z,17.60
2019-02-08T12:06:43.958Z,17.40
2019-02-08T12:09:11.874Z,17.60
2019-02-08T12:11:39.771Z,17.80
2019-02-08T12:14:07.928Z,17.80
2019-02-08T12:16:35.904Z,17.50
2019-02-08T12:19:03.979Z,17.60
2019-02-08T12:21:31.892Z,17.80
2019-02-08T12:23:59.819Z,17.80
2019-02-08T12:26:27.950Z,17.90
2019-02-08T12:28:55.864Z,18.10
2019-02-08T12:31:24.964Z,18.30
2019-02-08T12:33:53.000Z,18.40
2019-02-08T12:36:22.168Z,18.30
2019-02-08T12:38:50.032Z,18.50
2019-02-08T12:41:18.035Z,18.20
2019-02-08T12:43:46.050Z,18.20
2019-02-08T12:46:14.003Z,18.20
2019-02-08T12:48:41.958Z,18.10
2019-02-08T12:51:09.857Z,18.20
2019-02-08T12:53:38.012Z,18.50
2019-02-08T12:56:05.950Z,18.50
2019-02-08T12:58:36.654Z,18.60
2019-02-08T13:01:04.595Z,18.70
2019-02-08T13:03:32.540Z,18.70
2019-02-08T13:06:00.861Z,18.60
2019-02-08T13:08:28.800Z,18.60
2019-02-08T13:10:56.901Z,18.40
2019-02-08T13:13:24.895Z,18.60
2019-02-08T13:15:53.088Z,18.40
2019-02-08T13:18:21.019Z,18.60
2019-02-08T13:20:49.032Z,18.60
2019-02-08T13:23:16.990Z,18.40
2019-02-08T13:25:44.876Z,18.50
2019-02-08T13:28:12.776Z,18.50
2019-02-08T13:30:40.796Z,18.60
2019-02-08T13:33:08.804Z,18.70
2019-02-08T13:35:36.847Z,18.60
2019-02-08T13:38:06.147Z,18.70
2019-02-08T13:40:34.075Z,18.40
2019-02-08T13:43:01.984Z,18.20
2019-02-08T13:45:30.068Z,18.30
2019-02-08T13:47:58.111Z,18.40
2019-02-08T13:50:26.022Z,18.40
2019-02-08T13:52:54.033Z,18.20
2019-02-08T13:55:22.125Z,18.10
2019-02-08T13:57:50.107Z,18.20
2019-02-08T14:00:19.483Z,18.20
2019-02-08T14:02:48.481Z,18.00
2019-02-08T14:05:16.371Z,17.80
2019-02-08T14:07:44.310Z,17.40
2019-02-08T14:10:12.395Z,17.10
2019-02-08T14:12:40.394Z,16.60
2019-02-08T14:15:08.404Z,16.50
2019-02-08T14:17:36.296Z,16.40
2019-02-08T14:20:04.253Z,16.30
2019-02-08T14:22:32.540Z,16.40
2019-02-08T14:25:00.436Z,16.20
2019-02-08T14:27:28.440Z,16.40
2019-02-08T14:29:56.851Z,16.70
2019-02-08T14:32:24.835Z,16.90
2019-02-08T14:34:53.410Z,17.10
2019-02-08T14:37:21.498Z,17.50
2019-02-08T14:39:49.652Z,17.60
2019-02-08T14:42:17.852Z,17.60
2019-02-08T14:44:45.995Z,17.60
2019-02-08T14:47:14.108Z,17.50
2019-02-08T14:49:42.194Z,17.00
2019-02-08T14:52:10.457Z,16.90
2019-02-08T14:54:39.100Z,16.60
2019-02-08T14:57:16.508Z,16.50
2019-02-08T14:59:39.330Z,16.10
2019-02-08T15:02:07.936Z,16.20
2019-02-08T15:04:36.224Z,16.10
2019-02-08T15:07:04.631Z,16.20
2019-02-08T15:09:32.763Z,16.30
2019-02-08T15:12:01.015Z,16.20
2019-02-08T15:14:29.834Z,16.20
2019-02-08T15:16:57.905Z,16.30
2019-02-08T15:19:26.282Z,16.40
2019-02-08T15:21:54.426Z,16.80
2019-02-08T15:24:22.612Z,17.10
2019-02-08T15:26:50.894Z,17.40
2019-02-08T15:29:19.029Z,17.20
2019-02-08T15:31:46.950Z,16.90
2019-02-08T15:34:15.178Z,16.90
2019-02-08T15:36:49.211Z,16.80
2019-02-08T15:39:13.137Z,16.60
2019-02-08T15:41:41.181Z,16.30
2019-02-08T15:44:09.162Z,16.10
2019-02-08T15:46:37.609Z,15.80
2019-02-08T15:49:05.681Z,15.70
2019-02-08T15:51:33.563Z,15.50
2019-02-08T15:54:02.571Z,15.40
2019-02-08T15:56:31.656Z,15.40
2019-02-08T15:58:59.544Z,15.30
2019-02-08T16:01:27.499Z,15.30
2019-02-08T16:03:55.541Z,15.20
2019-02-08T16:06:23.435Z,15.10
2019-02-08T16:08:51.356Z,15.00
2019-02-08T16:11:19.321Z,15.00
2019-02-08T16:13:48.780Z,14.90
2019-02-08T16:16:16.808Z,14.70
2019-02-08T16:18:44.793Z,14.70
2019-02-08T16:21:13.129Z,14.80
2019-02-08T16:23:41.072Z,14.70
2019-02-08T16:26:09.172Z,14.60
2019-02-08T16:28:37.131Z,14.50
2019-02-08T16:31:05.049Z,14.50
2019-02-08T16:33:32.993Z,14.50
2019-02-08T16:36:01.048Z,14.50
2019-02-08T16:38:28.991Z,14.50
2019-02-08T16:40:56.925Z,14.30
2019-02-08T16:43:24.809Z,14.30
2019-02-08T16:45:52.769Z,14.20
2019-02-08T16:48:20.698Z,14.20
2019-02-08T16:50:48.574Z,14.20
2019-02-08T16:53:16.509Z,14.20
2019-02-08T16:55:44.584Z,14.20
2019-02-08T16:58:12.711Z,14.20
2019-02-08T17:00:40.667Z,14.10
2019-02-08T17:03:08.648Z,14.10
2019-02-08T17:05:36.564Z,14.10
2019-02-08T17:08:04.474Z,14.10
2019-02-08T17:10:32.425Z,14.00
2019-02-08T17:13:00.443Z,14.00
2019-02-08T17:15:28.427Z,14.00
2019-02-08T17:17:56.365Z,14.00
2019-02-08T17:20:24.621Z,13.90
2019-02-08T17:22:52.535Z,13.90
2019-02-08T17:25:20.485Z,13.90
2019-02-08T17:27:55.015Z,13.80
2019-02-08T17:30:17.910Z,13.80
2019-02-08T17:32:45.881Z,13.70
2019-02-08T17:35:13.843Z,13.70
2019-02-08T17:37:41.795Z,13.70
2019-02-08T17:40:09.921Z,13.60
2019-02-08T17:42:37.884Z,13.60
2019-02-08T17:45:05.825Z,13.50
2019-02-08T17:47:33.926Z,13.60
2019-02-08T17:50:01.818Z,13.50
2019-02-08T17:52:29.753Z,13.50
2019-02-08T17:54:57.718Z,13.50
2019-02-08T17:57:25.655Z,13.40
2019-02-08T17:59:53.648Z,13.40
2019-02-08T18:02:21.946Z,13.40
2019-02-08T18:04:49.832Z,13.40
2019-02-08T18:07:17.810Z,13.30
2019-02-08T18:09:45.729Z,13.30
2019-02-08T18:12:13.672Z,13.20
2019-02-08T18:14:41.591Z,13.30
2019-02-08T18:17:09.561Z,13.30
2019-02-08T18:19:37.473Z,13.30
2019-02-08T18:22:05.416Z,13.30
2019-02-08T18:24:33.658Z,13.30
2019-02-08T18:27:01.618Z,13.20
2019-02-08T18:29:29.727Z,13.20
2019-02-08T18:31:57.699Z,13.20
2019-02-08T18:34:25.763Z,13.20
2019-02-08T18:36:53.722Z,13.20
2019-02-08T18:39:21.743Z,13.20
2019-02-08T18:41:49.649Z,13.20
2019-02-08T18:44:17.606Z,13.20
2019-02-08T18:46:45.506Z,13.20
2019-02-08T18:49:13.424Z,13.20
2019-02-08T18:51:41.358Z,13.20
2019-02-08T18:54:09.298Z,13.30
2019-02-08T18:56:37.246Z,13.30
2019-02-08T18:59:05.183Z,13.30
2019-02-08T19:01:33.203Z,13.30
2019-02-08T19:04:01.159Z,13.30
2019-02-08T19:06:29.084Z,13.30
2019-02-08T19:08:57.250Z,13.30
2019-02-08T19:11:25.167Z,13.40
2019-02-08T19:13:53.292Z,13.40
2019-02-08T19:16:21.500Z,13.40
2019-02-08T19:18:49.384Z,13.40
2019-02-08T19:21:17.342Z,13.40
2019-02-08T19:23:45.404Z,13.40
2019-02-08T19:26:13.302Z,13.40
2019-02-08T19:28:41.252Z,13.40
2019-02-08T19:31:09.222Z,13.40
2019-02-08T19:33:37.384Z,13.40
2019-02-08T19:36:05.482Z,13.40
2019-02-08T19:38:33.540Z,13.30
2019-02-08T19:41:01.472Z,13.30
2019-02-08T19:43:29.438Z,13.30
2019-02-08T19:45:57.430Z,13.20
2019-02-08T19:48:25.386Z,13.20
2019-02-08T19:50:53.291Z,13.20
2019-02-08T19:53:21.404Z,13.20
2019-02-08T19:55:49.398Z,13.10
2019-02-08T19:58:17.807Z,13.10
2019-02-08T20:00:45.820Z,13.10
2019-02-08T20:03:13.751Z,13.10
2019-02-08T20:05:41.852Z,13.10
2019-02-08T20:08:09.939Z,13.10
2019-02-08T20:10:38.342Z,13.10
2019-02-08T20:13:06.285Z,13.00
2019-02-08T20:15:34.256Z,13.00
2019-02-08T20:18:02.321Z,13.00
2019-02-08T20:20:30.278Z,13.00
2019-02-08T20:22:58.302Z,12.90
2019-02-08T20:25:26.564Z,12.90
2019-02-08T20:27:54.503Z,12.90
2019-02-08T20:30:22.649Z,12.80
2019-02-08T20:32:50.698Z,12.90
2019-02-08T20:35:18.841Z,12.80
2019-02-08T20:37:46.998Z,12.80
2019-02-08T20:40:14.991Z,12.80
2019-02-08T20:42:43.033Z,12.80
2019-02-08T20:45:11.382Z,12.80
2019-02-08T20:47:39.625Z,12.80
2019-02-08T20:50:08.338Z,12.80
2019-02-08T20:52:36.929Z,12.80
2019-02-08T20:55:05.118Z,12.70
2019-02-08T20:57:33.299Z,12.70
2019-02-08T21:00:01.562Z,12.70
2019-02-08T21:02:29.929Z,12.60
2019-02-08T21:04:58.144Z,12.60
2019-02-08T21:07:26.370Z,12.60
2019-02-08T21:09:54.411Z,12.70
2019-02-08T21:12:22.738Z,12.60
2019-02-08T21:14:51.824Z,12.60
2019-02-08T21:17:19.813Z,12.50
2019-02-08T21:19:47.800Z,12.60
2019-02-08T21:22:15.752Z,12.60
2019-02-08T21:24:43.943Z,12.60
2019-02-08T21:27:12.008Z,12.60
2019-02-08T21:29:40.141Z,12.60
2019-02-08T21:32:08.217Z,12.50
2019-02-08T21:34:36.117Z,12.50
2019-02-08T21:37:04.303Z,12.60
2019-02-08T21:39:33.414Z,12.60
2019-02-08T21:42:01.825Z,12.60
2019-02-08T21:44:31.719Z,12.60
2019-02-08T21:47:00.346Z,12.50
2019-02-08T21:49:28.262Z,12.50
2019-02-08T21:51:57.769Z,12.50
2019-02-08T21:54:26.569Z,12.50
2019-02-08T21:56:56.812Z,12.50
2019-02-08T21:59:25.209Z,12.50
2019-02-08T22:01:53.774Z,12.50
2019-02-08T22:04:22.127Z,12.40
2019-02-08T22:06:50.353Z,12.40
2019-02-08T22:09:18.889Z,12.40
2019-02-08T22:11:48.407Z,12.40
2019-02-08T22:14:18.005Z,12.30
2019-02-08T22:16:45.964Z,12.30
2019-02-08T22:19:14.093Z,12.30
2019-02-08T22:21:42.203Z,12.30
2019-02-08T22:24:10.102Z,12.30
2019-02-08T22:26:38.037Z,12.30
2019-02-08T22:29:13.707Z,12.30
2019-02-08T22:31:35.618Z,12.30
2019-02-08T22:34:03.658Z,12.30
2019-02-08T22:36:31.619Z,12.30
2019-02-08T22:38:59.531Z,12.20
2019-02-08T22:41:27.426Z,12.20
2019-02-08T22:43:55.384Z,12.20
2019-02-08T22:46:23.299Z,12.10
2019-02-08T22:48:51.215Z,12.10
2019-02-08T22:51:19.218Z,12.10
2019-02-08T22:53:48.198Z,12.00
2019-02-08T22:56:16.107Z,12.00
2019-02-08T22:58:44.065Z,11.90
2019-02-08T23:01:11.967Z,11.90
2019-02-08T23:03:39.890Z,11.90
2019-02-08T23:06:07.947Z,11.90
2019-02-08T23:08:36.218Z,11.80
2019-02-08T23:11:04.287Z,11.80
2019-02-08T23:13:32.355Z,11.80
2019-02-08T23:16:00.309Z,11.80
2019-02-08T23:18:28.599Z,11.80
2019-02-08T23:20:56.540Z,11.80
2019-02-08T23:23:24.894Z,11.80
2019-02-08T23:25:52.964Z,11.80
2019-02-08T23:28:20.854Z,11.80
2019-02-08T23:30:48.863Z,11.70
2019-02-08T23:33:16.805Z,11.70
2019-02-08T23:35:44.822Z,11.70
2019-02-08T23:38:12.773Z,11.70
2019-02-08T23:40:40.679Z,11.70
2019-02-08T23:43:08.938Z,11.60
2019-02-08T23:45:36.847Z,11.60
2019-02-08T23:48:04.871Z,11.60
2019-02-08T23:50:32.827Z,11.60
2019-02-08T23:53:01.918Z,11.60
2019-02-08T23:55:29.845Z,11.60
2019-02-08T23:57:57.765Z,11.60
